sensor_id;sensor_type;location;lat;lon;timestamp;P1;durP1;ratioP1;P2;durP2;ratioP2
14665;SDS011;7420;53.574;10.040;2023-03-01T00:01:32;15.95;;;9.38;;
14665;SDS011;7420;53.574;10.040;2023-03-01T00:03:58;21.88;;;10.45;;
14665;SDS011;7420;53.574;10.040;2023-03-01T00:06:24;16.52;;;9.52;;
14665;SDS011;7420;53.574;10.040;2023-03-01T00:08:50;19.90;;;10.45;;
14665;SDS011;7420;53.574;10.040;2023-03-01T00:13:46;21.50;;;10.35;;
14665;SDS011;7420;53.574;10.040;2023-03-01T00:16:21;15.88;;;10.05;;
14665;SDS011;7420;53.574;10.040;2023-03-01T00:18:58;20.55;;;10.32;;
14665;SDS011;7420;53.574;10.040;2023-03-01T00:21:24;18.48;;;9.68;;
14665;SDS011;7420;53.574;10.040;2023-03-01T00:23:50;17.17;;;10.05;;
14665;SDS011;7420;53.574;10.040;2023-03-01T00:26:17;18.80;;;9.73;;
14665;SDS011;7420;53.574;10.040;2023-03-01T00:28:44;18.58;;;11.00;;
14665;SDS011;7420;53.574;10.040;2023-03-01T00:31:11;18.23;;;10.13;;
14665;SDS011;7420;53.574;10.040;2023-03-01T00:33:39;18.60;;;10.75;;
14665;SDS011;7420;53.574;10.040;2023-03-01T00:36:05;20.40;;;10.43;;
14665;SDS011;7420;53.574;10.040;2023-03-01T00:38:34;19.50;;;10.27;;
14665;SDS011;7420;53.574;10.040;2023-03-01T00:41:04;15.77;;;9.68;;
14665;SDS011;7420;53.574;10.040;2023-03-01T00:43:33;18.13;;;9.95;;
14665;SDS011;7420;53.574;10.040;2023-03-01T00:46:05;18.40;;;10.75;;
14665;SDS011;7420;53.574;10.040;2023-03-01T00:48:32;22.98;;;11.18;;
14665;SDS011;7420;53.574;10.040;2023-03-01T00:51:09;25.58;;;11.50;;
14665;SDS011;7420;53.574;10.040;2023-03-01T00:53:36;16.17;;;11.02;;
14665;SDS011;7420;53.574;10.040;2023-03-01T00:56:02;18.55;;;9.52;;
14665;SDS011;7420;53.574;10.040;2023-03-01T00:58:29;18.98;;;10.57;;
14665;SDS011;7420;53.574;10.040;2023-03-01T01:00:54;19.80;;;10.40;;
14665;SDS011;7420;53.574;10.040;2023-03-01T01:03:20;13.48;;;9.23;;
14665;SDS011;7420;53.574;10.040;2023-03-01T01:05:46;20.52;;;10.80;;
14665;SDS011;7420;53.574;10.040;2023-03-01T01:08:11;18.80;;;10.68;;
14665;SDS011;7420;53.574;10.040;2023-03-01T01:10:37;23.50;;;12.45;;
14665;SDS011;7420;53.574;10.040;2023-03-01T01:13:02;22.92;;;12.00;;
14665;SDS011;7420;53.574;10.040;2023-03-01T01:15:28;23.88;;;11.48;;
14665;SDS011;7420;53.574;10.040;2023-03-01T01:17:53;19.40;;;10.98;;
14665;SDS011;7420;53.574;10.040;2023-03-01T01:20:19;15.63;;;10.05;;
14665;SDS011;7420;53.574;10.040;2023-03-01T01:22:45;20.85;;;11.52;;
14665;SDS011;7420;53.574;10.040;2023-03-01T01:25:11;22.95;;;10.20;;
14665;SDS011;7420;53.574;10.040;2023-03-01T01:27:36;17.00;;;10.10;;
14665;SDS011;7420;53.574;10.040;2023-03-01T01:30:02;14.93;;;9.82;;
14665;SDS011;7420;53.574;10.040;2023-03-01T01:32:28;19.70;;;10.57;;
14665;SDS011;7420;53.574;10.040;2023-03-01T01:34:54;20.60;;;11.05;;
14665;SDS011;7420;53.574;10.040;2023-03-01T01:37:19;19.73;;;11.07;;
14665;SDS011;7420;53.574;10.040;2023-03-01T01:39:45;17.92;;;11.43;;
14665;SDS011;7420;53.574;10.040;2023-03-01T01:42:16;21.40;;;11.45;;
14665;SDS011;7420;53.574;10.040;2023-03-01T01:44:42;21.60;;;11.20;;
14665;SDS011;7420;53.574;10.040;2023-03-01T01:47:15;22.48;;;10.95;;
14665;SDS011;7420;53.574;10.040;2023-03-01T01:49:51;19.58;;;10.25;;
14665;SDS011;7420;53.574;10.040;2023-03-01T01:52:20;20.35;;;10.73;;
14665;SDS011;7420;53.574;10.040;2023-03-01T01:54:51;28.95;;;11.48;;
14665;SDS011;7420;53.574;10.040;2023-03-01T01:57:22;17.65;;;10.82;;
14665;SDS011;7420;53.574;10.040;2023-03-01T01:59:53;20.15;;;10.27;;
14665;SDS011;7420;53.574;10.040;2023-03-01T02:02:22;20.83;;;10.57;;
14665;SDS011;7420;53.574;10.040;2023-03-01T02:04:48;18.17;;;10.35;;
14665;SDS011;7420;53.574;10.040;2023-03-01T02:07:18;18.23;;;11.63;;
14665;SDS011;7420;53.574;10.040;2023-03-01T02:09:46;16.83;;;10.80;;
14665;SDS011;7420;53.574;10.040;2023-03-01T02:12:14;25.23;;;10.90;;
14665;SDS011;7420;53.574;10.040;2023-03-01T02:14:42;17.45;;;11.00;;
14665;SDS011;7420;53.574;10.040;2023-03-01T02:17:07;21.35;;;11.13;;
14665;SDS011;7420;53.574;10.040;2023-03-01T02:19:40;16.00;;;10.75;;
14665;SDS011;7420;53.574;10.040;2023-03-01T02:22:14;21.73;;;10.65;;
14665;SDS011;7420;53.574;10.040;2023-03-01T02:27:22;16.30;;;10.05;;
14665;SDS011;7420;53.574;10.040;2023-03-01T02:29:52;18.80;;;10.98;;
14665;SDS011;7420;53.574;10.040;2023-03-01T02:32:17;17.88;;;9.70;;
14665;SDS011;7420;53.574;10.040;2023-03-01T02:34:50;18.35;;;11.40;;
14665;SDS011;7420;53.574;10.040;2023-03-01T02:37:17;16.90;;;10.45;;
14665;SDS011;7420;53.574;10.040;2023-03-01T02:39:49;21.17;;;10.55;;
14665;SDS011;7420;53.574;10.040;2023-03-01T02:42:23;20.55;;;10.02;;
14665;SDS011;7420;53.574;10.040;2023-03-01T02:44:51;14.50;;;10.32;;
14665;SDS011;7420;53.574;10.040;2023-03-01T02:47:16;15.88;;;9.60;;
14665;SDS011;7420;53.574;10.040;2023-03-01T02:49:42;21.95;;;11.10;;
14665;SDS011;7420;53.574;10.040;2023-03-01T02:57:37;18.80;;;10.15;;
14665;SDS011;7420;53.574;10.040;2023-03-01T03:00:15;19.08;;;10.90;;
14665;SDS011;7420;53.574;10.040;2023-03-01T03:02:50;20.45;;;10.20;;
14665;SDS011;7420;53.574;10.040;2023-03-01T03:05:18;17.17;;;9.85;;
14665;SDS011;7420;53.574;10.040;2023-03-01T03:07:46;16.70;;;10.00;;
14665;SDS011;7420;53.574;10.040;2023-03-01T03:10:14;18.65;;;11.05;;
14665;SDS011;7420;53.574;10.040;2023-03-01T03:12:48;20.60;;;10.10;;
14665;SDS011;7420;53.574;10.040;2023-03-01T03:15:19;20.00;;;10.63;;
14665;SDS011;7420;53.574;10.040;2023-03-01T03:17:45;21.83;;;12.77;;
14665;SDS011;7420;53.574;10.040;2023-03-01T03:20:12;21.48;;;11.38;;
14665;SDS011;7420;53.574;10.040;2023-03-01T03:22:43;25.27;;;10.90;;
14665;SDS011;7420;53.574;10.040;2023-03-01T03:25:10;20.58;;;10.68;;
14665;SDS011;7420;53.574;10.040;2023-03-01T03:27:39;18.08;;;10.85;;
14665;SDS011;7420;53.574;10.040;2023-03-01T03:30:06;17.38;;;10.88;;
14665;SDS011;7420;53.574;10.040;2023-03-01T03:32:38;17.65;;;10.38;;
14665;SDS011;7420;53.574;10.040;2023-03-01T03:35:05;16.60;;;11.73;;
14665;SDS011;7420;53.574;10.040;2023-03-01T03:37:38;18.98;;;11.10;;
14665;SDS011;7420;53.574;10.040;2023-03-01T03:40:23;18.92;;;10.23;;
14665;SDS011;7420;53.574;10.040;2023-03-01T03:42:49;19.45;;;11.07;;
14665;SDS011;7420;53.574;10.040;2023-03-01T03:45:15;14.90;;;10.50;;
14665;SDS011;7420;53.574;10.040;2023-03-01T03:47:41;14.57;;;10.10;;
14665;SDS011;7420;53.574;10.040;2023-03-01T03:50:07;16.58;;;10.52;;
14665;SDS011;7420;53.574;10.040;2023-03-01T03:52:34;17.10;;;10.68;;
14665;SDS011;7420;53.574;10.040;2023-03-01T03:54:59;17.27;;;10.52;;
14665;SDS011;7420;53.574;10.040;2023-03-01T03:57:25;18.77;;;10.35;;
14665;SDS011;7420;53.574;10.040;2023-03-01T03:59:50;18.83;;;11.55;;
14665;SDS011;7420;53.574;10.040;2023-03-01T04:02:15;15.50;;;9.85;;
14665;SDS011;7420;53.574;10.040;2023-03-01T04:04:47;14.48;;;11.30;;
14665;SDS011;7420;53.574;10.040;2023-03-01T04:07:18;13.88;;;9.43;;
14665;SDS011;7420;53.574;10.040;2023-03-01T04:09:43;13.38;;;8.73;;
14665;SDS011;7420;53.574;10.040;2023-03-01T04:12:09;15.48;;;9.50;;
14665;SDS011;7420;53.574;10.040;2023-03-01T04:14:35;15.88;;;9.80;;
14665;SDS011;7420;53.574;10.040;2023-03-01T04:17:01;20.73;;;10.52;;
14665;SDS011;7420;53.574;10.040;2023-03-01T04:19:30;17.63;;;10.13;;
14665;SDS011;7420;53.574;10.040;2023-03-01T04:22:03;17.15;;;10.27;;
14665;SDS011;7420;53.574;10.040;2023-03-01T04:24:34;16.05;;;10.02;;
14665;SDS011;7420;53.574;10.040;2023-03-01T04:27:00;14.63;;;9.82;;
14665;SDS011;7420;53.574;10.040;2023-03-01T04:29:26;17.77;;;10.48;;
14665;SDS011;7420;53.574;10.040;2023-03-01T04:31:51;13.48;;;9.00;;
14665;SDS011;7420;53.574;10.040;2023-03-01T04:34:16;18.00;;;10.43;;
14665;SDS011;7420;53.574;10.040;2023-03-01T04:36:42;20.08;;;10.45;;
14665;SDS011;7420;53.574;10.040;2023-03-01T04:39:07;15.50;;;10.35;;
14665;SDS011;7420;53.574;10.040;2023-03-01T04:41:37;13.60;;;9.15;;
14665;SDS011;7420;53.574;10.040;2023-03-01T04:44:07;15.18;;;9.43;;
14665;SDS011;7420;53.574;10.040;2023-03-01T04:46:34;11.95;;;8.88;;
14665;SDS011;7420;53.574;10.040;2023-03-01T04:49:00;13.73;;;9.02;;
14665;SDS011;7420;53.574;10.040;2023-03-01T04:51:25;16.40;;;8.45;;
14665;SDS011;7420;53.574;10.040;2023-03-01T04:53:51;14.35;;;8.73;;
14665;SDS011;7420;53.574;10.040;2023-03-01T04:56:16;13.32;;;8.95;;
14665;SDS011;7420;53.574;10.040;2023-03-01T04:58:45;16.13;;;8.88;;
14665;SDS011;7420;53.574;10.040;2023-03-01T05:01:11;16.75;;;9.48;;
14665;SDS011;7420;53.574;10.040;2023-03-01T05:03:45;18.80;;;9.70;;
14665;SDS011;7420;53.574;10.040;2023-03-01T05:06:16;10.93;;;7.50;;
14665;SDS011;7420;53.574;10.040;2023-03-01T05:08:42;12.00;;;6.57;;
14665;SDS011;7420;53.574;10.040;2023-03-01T05:11:08;13.73;;;7.55;;
14665;SDS011;7420;53.574;10.040;2023-03-01T05:13:35;11.13;;;7.43;;
14665;SDS011;7420;53.574;10.040;2023-03-01T05:16:02;11.00;;;6.43;;
14665;SDS011;7420;53.574;10.040;2023-03-01T05:18:29;9.10;;;5.65;;
14665;SDS011;7420;53.574;10.040;2023-03-01T05:21:05;9.18;;;4.85;;
14665;SDS011;7420;53.574;10.040;2023-03-01T05:23:35;9.00;;;5.20;;
14665;SDS011;7420;53.574;10.040;2023-03-01T05:26:01;10.63;;;5.47;;
14665;SDS011;7420;53.574;10.040;2023-03-01T05:28:28;8.98;;;5.95;;
14665;SDS011;7420;53.574;10.040;2023-03-01T05:30:54;7.32;;;5.50;;
14665;SDS011;7420;53.574;10.040;2023-03-01T05:33:20;7.75;;;5.45;;
14665;SDS011;7420;53.574;10.040;2023-03-01T05:35:47;8.45;;;5.40;;
14665;SDS011;7420;53.574;10.040;2023-03-01T05:38:13;7.68;;;5.47;;
14665;SDS011;7420;53.574;10.040;2023-03-01T05:40:40;7.13;;;4.70;;
14665;SDS011;7420;53.574;10.040;2023-03-01T05:43:07;9.07;;;4.72;;
14665;SDS011;7420;53.574;10.040;2023-03-01T05:45:33;8.00;;;6.00;;
14665;SDS011;7420;53.574;10.040;2023-03-01T05:48:02;7.22;;;4.75;;
14665;SDS011;7420;53.574;10.040;2023-03-01T05:50:28;6.78;;;4.88;;
14665;SDS011;7420;53.574;10.040;2023-03-01T05:55:23;9.38;;;5.88;;
14665;SDS011;7420;53.574;10.040;2023-03-01T05:57:49;12.15;;;6.82;;
14665;SDS011;7420;53.574;10.040;2023-03-01T06:00:16;11.07;;;6.22;;
14665;SDS011;7420;53.574;10.040;2023-03-01T06:02:43;10.93;;;6.00;;
14665;SDS011;7420;53.574;10.040;2023-03-01T06:05:09;7.75;;;5.65;;
14665;SDS011;7420;53.574;10.040;2023-03-01T06:07:36;11.07;;;7.22;;
14665;SDS011;7420;53.574;10.040;2023-03-01T06:10:02;13.25;;;6.38;;
14665;SDS011;7420;53.574;10.040;2023-03-01T06:12:32;12.32;;;6.82;;
14665;SDS011;7420;53.574;10.040;2023-03-01T06:15:02;11.23;;;6.20;;
14665;SDS011;7420;53.574;10.040;2023-03-01T06:17:29;12.02;;;7.65;;
14665;SDS011;7420;53.574;10.040;2023-03-01T06:19:56;13.75;;;7.82;;
14665;SDS011;7420;53.574;10.040;2023-03-01T06:22:21;12.80;;;7.20;;
14665;SDS011;7420;53.574;10.040;2023-03-01T06:24:47;13.02;;;8.18;;
14665;SDS011;7420;53.574;10.040;2023-03-01T06:27:12;12.75;;;7.25;;
14665;SDS011;7420;53.574;10.040;2023-03-01T06:29:37;12.43;;;6.68;;
14665;SDS011;7420;53.574;10.040;2023-03-01T06:32:03;13.02;;;6.95;;
14665;SDS011;7420;53.574;10.040;2023-03-01T06:34:28;10.18;;;6.15;;
14665;SDS011;7420;53.574;10.040;2023-03-01T06:36:54;14.55;;;6.70;;
14665;SDS011;7420;53.574;10.040;2023-03-01T06:39:19;12.35;;;6.90;;
14665;SDS011;7420;53.574;10.040;2023-03-01T06:41:45;11.77;;;6.63;;
14665;SDS011;7420;53.574;10.040;2023-03-01T06:44:10;8.52;;;5.97;;
14665;SDS011;7420;53.574;10.040;2023-03-01T06:46:35;12.95;;;7.30;;
14665;SDS011;7420;53.574;10.040;2023-03-01T06:49:01;8.75;;;6.10;;
14665;SDS011;7420;53.574;10.040;2023-03-01T06:51:29;13.45;;;5.85;;
14665;SDS011;7420;53.574;10.040;2023-03-01T06:53:54;11.27;;;6.10;;
14665;SDS011;7420;53.574;10.040;2023-03-01T06:56:20;11.75;;;6.70;;
14665;SDS011;7420;53.574;10.040;2023-03-01T06:58:45;10.00;;;6.07;;
14665;SDS011;7420;53.574;10.040;2023-03-01T07:01:11;11.32;;;5.97;;
14665;SDS011;7420;53.574;10.040;2023-03-01T07:03:36;13.15;;;6.70;;
14665;SDS011;7420;53.574;10.040;2023-03-01T07:06:01;8.45;;;5.53;;
14665;SDS011;7420;53.574;10.040;2023-03-01T07:08:27;9.43;;;5.65;;
14665;SDS011;7420;53.574;10.040;2023-03-01T07:10:55;11.65;;;4.97;;
14665;SDS011;7420;53.574;10.040;2023-03-01T07:13:21;12.77;;;5.55;;
14665;SDS011;7420;53.574;10.040;2023-03-01T07:15:47;11.05;;;5.13;;
14665;SDS011;7420;53.574;10.040;2023-03-01T07:18:12;8.70;;;5.05;;
14665;SDS011;7420;53.574;10.040;2023-03-01T07:20:37;8.48;;;5.35;;
14665;SDS011;7420;53.574;10.040;2023-03-01T07:23:03;9.63;;;6.38;;
14665;SDS011;7420;53.574;10.040;2023-03-01T07:25:30;8.32;;;5.43;;
14665;SDS011;7420;53.574;10.040;2023-03-01T07:27:55;16.90;;;6.45;;
14665;SDS011;7420;53.574;10.040;2023-03-01T07:30:21;8.23;;;6.68;;
14665;SDS011;7420;53.574;10.040;2023-03-01T07:32:46;8.80;;;6.28;;
14665;SDS011;7420;53.574;10.040;2023-03-01T07:35:12;10.55;;;5.95;;
14665;SDS011;7420;53.574;10.040;2023-03-01T07:37:37;15.10;;;5.70;;
14665;SDS011;7420;53.574;10.040;2023-03-01T07:40:03;10.90;;;6.10;;
14665;SDS011;7420;53.574;10.040;2023-03-01T07:42:29;8.07;;;5.80;;
14665;SDS011;7420;53.574;10.040;2023-03-01T07:44:54;12.50;;;6.78;;
14665;SDS011;7420;53.574;10.040;2023-03-01T07:47:19;10.32;;;6.88;;
14665;SDS011;7420;53.574;10.040;2023-03-01T07:49:45;12.38;;;7.97;;
14665;SDS011;7420;53.574;10.040;2023-03-01T07:52:10;12.80;;;7.65;;
14665;SDS011;7420;53.574;10.040;2023-03-01T07:54:36;13.20;;;8.10;;
14665;SDS011;7420;53.574;10.040;2023-03-01T07:57:02;13.30;;;8.07;;
14665;SDS011;7420;53.574;10.040;2023-03-01T07:59:28;15.45;;;8.45;;
14665;SDS011;7420;53.574;10.040;2023-03-01T08:01:55;13.07;;;7.57;;
14665;SDS011;7420;53.574;10.040;2023-03-01T08:04:21;15.32;;;9.38;;
14665;SDS011;7420;53.574;10.040;2023-03-01T08:06:47;15.05;;;9.60;;
14665;SDS011;7420;53.574;10.040;2023-03-01T08:09:12;15.13;;;9.98;;
14665;SDS011;7420;53.574;10.040;2023-03-01T08:11:37;14.75;;;9.68;;
14665;SDS011;7420;53.574;10.040;2023-03-01T08:14:03;17.45;;;10.35;;
14665;SDS011;7420;53.574;10.040;2023-03-01T08:16:28;17.60;;;11.98;;
14665;SDS011;7420;53.574;10.040;2023-03-01T08:18:54;21.27;;;11.15;;
14665;SDS011;7420;53.574;10.040;2023-03-01T08:21:21;14.68;;;10.05;;
14665;SDS011;7420;53.574;10.040;2023-03-01T08:23:47;15.98;;;10.70;;
14665;SDS011;7420;53.574;10.040;2023-03-01T08:26:13;16.25;;;10.90;;
14665;SDS011;7420;53.574;10.040;2023-03-01T08:28:41;20.65;;;9.98;;
14665;SDS011;7420;53.574;10.040;2023-03-01T08:31:23;19.73;;;11.35;;
14665;SDS011;7420;53.574;10.040;2023-03-01T08:36:20;19.35;;;11.07;;
14665;SDS011;7420;53.574;10.040;2023-03-01T08:38:50;18.77;;;10.75;;
14665;SDS011;7420;53.574;10.040;2023-03-01T08:41:15;17.20;;;11.15;;
14665;SDS011;7420;53.574;10.040;2023-03-01T08:43:41;18.88;;;10.82;;
14665;SDS011;7420;53.574;10.040;2023-03-01T08:46:07;20.67;;;11.20;;
14665;SDS011;7420;53.574;10.040;2023-03-01T08:48:32;22.63;;;12.18;;
14665;SDS011;7420;53.574;10.040;2023-03-01T08:51:06;21.85;;;12.10;;
14665;SDS011;7420;53.574;10.040;2023-03-01T08:53:39;21.55;;;11.48;;
14665;SDS011;7420;53.574;10.040;2023-03-01T08:56:05;19.88;;;11.38;;
14665;SDS011;7420;53.574;10.040;2023-03-01T08:58:31;17.92;;;11.30;;
14665;SDS011;7420;53.574;10.040;2023-03-01T09:00:56;18.00;;;11.52;;
14665;SDS011;7420;53.574;10.040;2023-03-01T09:03:22;17.50;;;11.43;;
14665;SDS011;7420;53.574;10.040;2023-03-01T09:05:49;17.15;;;11.52;;
14665;SDS011;7420;53.574;10.040;2023-03-01T09:08:15;15.43;;;10.55;;
14665;SDS011;7420;53.574;10.040;2023-03-01T09:10:44;18.00;;;11.00;;
14665;SDS011;7420;53.574;10.040;2023-03-01T09:13:10;22.92;;;10.55;;
14665;SDS011;7420;53.574;10.040;2023-03-01T09:15:38;17.52;;;11.30;;
14665;SDS011;7420;53.574;10.040;2023-03-01T09:18:06;18.65;;;11.50;;
14665;SDS011;7420;53.574;10.040;2023-03-01T09:20:31;20.25;;;11.55;;
14665;SDS011;7420;53.574;10.040;2023-03-01T09:22:57;18.52;;;11.57;;
14665;SDS011;7420;53.574;10.040;2023-03-01T09:25:23;20.40;;;12.52;;
14665;SDS011;7420;53.574;10.040;2023-03-01T09:27:51;15.32;;;11.10;;
14665;SDS011;7420;53.574;10.040;2023-03-01T09:30:17;18.98;;;13.00;;
14665;SDS011;7420;53.574;10.040;2023-03-01T09:32:43;22.20;;;12.52;;
14665;SDS011;7420;53.574;10.040;2023-03-01T09:35:10;17.83;;;12.90;;
14665;SDS011;7420;53.574;10.040;2023-03-01T09:37:36;19.35;;;13.35;;
14665;SDS011;7420;53.574;10.040;2023-03-01T09:40:03;18.48;;;12.43;;
14665;SDS011;7420;53.574;10.040;2023-03-01T09:42:32;18.77;;;13.27;;
14665;SDS011;7420;53.574;10.040;2023-03-01T09:45:06;23.65;;;12.88;;
14665;SDS011;7420;53.574;10.040;2023-03-01T09:47:40;18.77;;;12.90;;
14665;SDS011;7420;53.574;10.040;2023-03-01T09:50:09;20.90;;;12.98;;
14665;SDS011;7420;53.574;10.040;2023-03-01T09:55:29;21.20;;;13.23;;
14665;SDS011;7420;53.574;10.040;2023-03-01T10:01:10;18.88;;;12.88;;
14665;SDS011;7420;53.574;10.040;2023-03-01T10:03:43;19.93;;;13.97;;
14665;SDS011;7420;53.574;10.040;2023-03-01T10:06:29;25.73;;;14.32;;
14665;SDS011;7420;53.574;10.040;2023-03-01T10:08:59;17.98;;;12.23;;
14665;SDS011;7420;53.574;10.040;2023-03-01T10:11:31;19.25;;;12.07;;
14665;SDS011;7420;53.574;10.040;2023-03-01T10:16:34;18.42;;;12.85;;
14665;SDS011;7420;53.574;10.040;2023-03-01T10:19:55;19.40;;;12.27;;
14665;SDS011;7420;53.574;10.040;2023-03-01T10:22:12;16.73;;;11.80;;
14665;SDS011;7420;53.574;10.040;2023-03-01T10:24:41;17.52;;;11.57;;
14665;SDS011;7420;53.574;10.040;2023-03-01T10:27:17;19.08;;;12.23;;
14665;SDS011;7420;53.574;10.040;2023-03-01T10:32:38;16.92;;;10.13;;
14665;SDS011;7420;53.574;10.040;2023-03-01T10:35:20;17.52;;;9.93;;
14665;SDS011;7420;53.574;10.040;2023-03-01T10:40:23;16.33;;;9.40;;
14665;SDS011;7420;53.574;10.040;2023-03-01T10:42:49;15.73;;;9.05;;
14665;SDS011;7420;53.574;10.040;2023-03-01T10:48:08;12.70;;;8.32;;
14665;SDS011;7420;53.574;10.040;2023-03-01T10:50:44;14.20;;;9.35;;
14665;SDS011;7420;53.574;10.040;2023-03-01T10:53:24;14.85;;;9.65;;
14665;SDS011;7420;53.574;10.040;2023-03-01T10:56:09;13.25;;;8.75;;
14665;SDS011;7420;53.574;10.040;2023-03-01T10:58:39;20.10;;;10.52;;
14665;SDS011;7420;53.574;10.040;2023-03-01T11:04:03;16.35;;;9.80;;
14665;SDS011;7420;53.574;10.040;2023-03-01T11:06:34;16.77;;;10.20;;
14665;SDS011;7420;53.574;10.040;2023-03-01T11:09:13;16.40;;;10.30;;
14665;SDS011;7420;53.574;10.040;2023-03-01T11:11:46;14.50;;;9.57;;
14665;SDS011;7420;53.574;10.040;2023-03-01T11:14:18;16.73;;;10.02;;
14665;SDS011;7420;53.574;10.040;2023-03-01T11:22:54;15.93;;;8.98;;
14665;SDS011;7420;53.574;10.040;2023-03-01T11:25:43;12.75;;;8.02;;
14665;SDS011;7420;53.574;10.040;2023-03-01T11:28:15;12.65;;;8.10;;
14665;SDS011;7420;53.574;10.040;2023-03-01T11:31:02;17.20;;;9.80;;
14665;SDS011;7420;53.574;10.040;2023-03-01T11:33:35;12.30;;;7.60;;
14665;SDS011;7420;53.574;10.040;2023-03-01T11:38:43;10.23;;;6.50;;
14665;SDS011;7420;53.574;10.040;2023-03-01T11:41:13;13.55;;;6.25;;
14665;SDS011;7420;53.574;10.040;2023-03-01T11:43:52;9.15;;;6.03;;
14665;SDS011;7420;53.574;10.040;2023-03-01T11:46:31;8.13;;;5.60;;
14665;SDS011;7420;53.574;10.040;2023-03-01T11:55:11;8.38;;;5.80;;
14665;SDS011;7420;53.574;10.040;2023-03-01T12:14:51;10.77;;;7.00;;
14665;SDS011;7420;53.574;10.040;2023-03-01T12:17:41;9.75;;;6.13;;
14665;SDS011;7420;53.574;10.040;2023-03-01T12:31:37;10.18;;;5.82;;
14665;SDS011;7420;53.574;10.040;2023-03-01T12:34:18;9.68;;;5.07;;
14665;SDS011;7420;53.574;10.040;2023-03-01T12:50:35;8.20;;;6.07;;
14665;SDS011;7420;53.574;10.040;2023-03-01T12:53:07;8.70;;;5.88;;
14665;SDS011;7420;53.574;10.040;2023-03-01T12:55:48;12.77;;;7.32;;
14665;SDS011;7420;53.574;10.040;2023-03-01T12:58:20;8.68;;;5.90;;
14665;SDS011;7420;53.574;10.040;2023-03-01T13:07:04;7.72;;;5.57;;
14665;SDS011;7420;53.574;10.040;2023-03-01T13:11:56;8.52;;;6.10;;
14665;SDS011;7420;53.574;10.040;2023-03-01T13:16:48;8.80;;;6.90;;
14665;SDS011;7420;53.574;10.040;2023-03-01T13:21:43;9.30;;;6.88;;
14665;SDS011;7420;53.574;10.040;2023-03-01T13:32:45;8.55;;;6.97;;
14665;SDS011;7420;53.574;10.040;2023-03-01T13:38:04;7.55;;;5.85;;
14665;SDS011;7420;53.574;10.040;2023-03-01T13:41:01;8.18;;;5.93;;
14665;SDS011;7420;53.574;10.040;2023-03-01T13:43:37;11.45;;;7.35;;
14665;SDS011;7420;53.574;10.040;2023-03-01T13:48:49;8.43;;;6.93;;
14665;SDS011;7420;53.574;10.040;2023-03-01T13:51:19;9.38;;;6.45;;
14665;SDS011;7420;53.574;10.040;2023-03-01T13:53:54;9.43;;;6.85;;
14665;SDS011;7420;53.574;10.040;2023-03-01T13:56:24;8.93;;;6.25;;
14665;SDS011;7420;53.574;10.040;2023-03-01T14:01:23;8.40;;;6.72;;
14665;SDS011;7420;53.574;10.040;2023-03-01T14:03:51;8.68;;;5.72;;
14665;SDS011;7420;53.574;10.040;2023-03-01T14:06:19;6.55;;;5.63;;
14665;SDS011;7420;53.574;10.040;2023-03-01T14:08:48;6.63;;;5.40;;
14665;SDS011;7420;53.574;10.040;2023-03-01T14:22:53;8.35;;;5.55;;
14665;SDS011;7420;53.574;10.040;2023-03-01T14:25:26;5.72;;;5.13;;
14665;SDS011;7420;53.574;10.040;2023-03-01T14:27:59;5.97;;;5.38;;
14665;SDS011;7420;53.574;10.040;2023-03-01T14:30:30;6.50;;;4.87;;
14665;SDS011;7420;53.574;10.040;2023-03-01T14:33:18;6.25;;;4.88;;
14665;SDS011;7420;53.574;10.040;2023-03-01T14:36:10;6.88;;;5.30;;
14665;SDS011;7420;53.574;10.040;2023-03-01T14:38:45;7.35;;;5.75;;
14665;SDS011;7420;53.574;10.040;2023-03-01T14:41:18;5.35;;;4.70;;
14665;SDS011;7420;53.574;10.040;2023-03-01T14:46:40;5.75;;;4.90;;
14665;SDS011;7420;53.574;10.040;2023-03-01T14:49:15;5.57;;;4.90;;
14665;SDS011;7420;53.574;10.040;2023-03-01T14:51:54;5.88;;;5.25;;
14665;SDS011;7420;53.574;10.040;2023-03-01T14:54:25;6.28;;;5.35;;
14665;SDS011;7420;53.574;10.040;2023-03-01T14:56:54;6.40;;;4.88;;
14665;SDS011;7420;53.574;10.040;2023-03-01T14:59:24;6.50;;;5.53;;
14665;SDS011;7420;53.574;10.040;2023-03-01T15:01:50;8.32;;;5.13;;
14665;SDS011;7420;53.574;10.040;2023-03-01T15:04:18;6.20;;;4.88;;
14665;SDS011;7420;53.574;10.040;2023-03-01T15:06:44;6.15;;;5.00;;
14665;SDS011;7420;53.574;10.040;2023-03-01T15:09:14;7.53;;;5.75;;
14665;SDS011;7420;53.574;10.040;2023-03-01T15:11:41;7.60;;;5.78;;
14665;SDS011;7420;53.574;10.040;2023-03-01T15:14:28;6.45;;;5.05;;
14665;SDS011;7420;53.574;10.040;2023-03-01T15:17:20;6.88;;;5.22;;
14665;SDS011;7420;53.574;10.040;2023-03-01T15:19:52;7.72;;;5.85;;
14665;SDS011;7420;53.574;10.040;2023-03-01T15:22:18;7.85;;;5.78;;
14665;SDS011;7420;53.574;10.040;2023-03-01T15:24:51;6.40;;;5.55;;
14665;SDS011;7420;53.574;10.040;2023-03-01T15:27:20;6.20;;;5.55;;
14665;SDS011;7420;53.574;10.040;2023-03-01T15:29:51;4.90;;;4.20;;
14665;SDS011;7420;53.574;10.040;2023-03-01T15:32:41;5.03;;;4.53;;
14665;SDS011;7420;53.574;10.040;2023-03-01T15:38:04;5.75;;;4.63;;
14665;SDS011;7420;53.574;10.040;2023-03-01T15:40:51;7.78;;;5.00;;
14665;SDS011;7420;53.574;10.040;2023-03-01T15:46:02;6.72;;;5.90;;
14665;SDS011;7420;53.574;10.040;2023-03-01T15:48:27;5.10;;;4.60;;
14665;SDS011;7420;53.574;10.040;2023-03-01T15:50:54;5.43;;;4.57;;
14665;SDS011;7420;53.574;10.040;2023-03-01T15:53:23;5.78;;;4.30;;
14665;SDS011;7420;53.574;10.040;2023-03-01T15:55:49;6.20;;;4.88;;
14665;SDS011;7420;53.574;10.040;2023-03-01T15:58:19;5.03;;;4.53;;
14665;SDS011;7420;53.574;10.040;2023-03-01T16:00:47;5.78;;;4.30;;
14665;SDS011;7420;53.574;10.040;2023-03-01T16:03:13;5.35;;;4.75;;
14665;SDS011;7420;53.574;10.040;2023-03-01T16:05:39;6.97;;;5.00;;
14665;SDS011;7420;53.574;10.040;2023-03-01T16:08:05;7.35;;;5.47;;
14665;SDS011;7420;53.574;10.040;2023-03-01T16:10:31;6.72;;;4.80;;
14665;SDS011;7420;53.574;10.040;2023-03-01T16:12:58;8.35;;;4.95;;
14665;SDS011;7420;53.574;10.040;2023-03-01T16:15:27;6.60;;;5.28;;
14665;SDS011;7420;53.574;10.040;2023-03-01T16:17:54;8.75;;;6.00;;
14665;SDS011;7420;53.574;10.040;2023-03-01T16:20:21;8.95;;;5.78;;
14665;SDS011;7420;53.574;10.040;2023-03-01T16:22:47;8.38;;;5.63;;
14665;SDS011;7420;53.574;10.040;2023-03-01T16:25:14;8.57;;;6.45;;
14665;SDS011;7420;53.574;10.040;2023-03-01T16:27:42;13.13;;;6.88;;
14665;SDS011;7420;53.574;10.040;2023-03-01T16:30:08;11.15;;;7.43;;
14665;SDS011;7420;53.574;10.040;2023-03-01T16:32:41;10.88;;;7.03;;
14665;SDS011;7420;53.574;10.040;2023-03-01T16:35:08;11.50;;;7.25;;
14665;SDS011;7420;53.574;10.040;2023-03-01T16:37:35;12.52;;;8.23;;
14665;SDS011;7420;53.574;10.040;2023-03-01T16:40:02;12.75;;;8.43;;
14665;SDS011;7420;53.574;10.040;2023-03-01T16:42:32;13.50;;;8.45;;
14665;SDS011;7420;53.574;10.040;2023-03-01T16:44:58;14.52;;;9.02;;
14665;SDS011;7420;53.574;10.040;2023-03-01T16:47:23;12.88;;;8.27;;
14665;SDS011;7420;53.574;10.040;2023-03-01T16:49:52;13.13;;;8.45;;
14665;SDS011;7420;53.574;10.040;2023-03-01T16:52:18;14.45;;;9.40;;
14665;SDS011;7420;53.574;10.040;2023-03-01T16:54:44;12.98;;;8.98;;
14665;SDS011;7420;53.574;10.040;2023-03-01T16:57:09;16.63;;;9.30;;
14665;SDS011;7420;53.574;10.040;2023-03-01T16:59:35;16.50;;;10.07;;
14665;SDS011;7420;53.574;10.040;2023-03-01T17:02:01;16.58;;;9.27;;
14665;SDS011;7420;53.574;10.040;2023-03-01T17:04:26;15.45;;;9.48;;
14665;SDS011;7420;53.574;10.040;2023-03-01T17:06:52;18.15;;;9.88;;